createdAt,value
2022-12-06T00:01:46.050Z,101526.59
2022-12-06T00:04:15.795Z,101516.84
2022-12-06T00:06:45.435Z,101516.16
2022-12-06T00:09:18.785Z,101521.78
2022-12-06T00:11:48.459Z,101514.28
2022-12-06T00:14:17.121Z,101518.50
2022-12-06T00:16:45.504Z,101517.72
2022-12-06T00:19:15.787Z,101527.59
2022-12-06T00:21:44.354Z,101534.53
2022-12-06T00:24:14.268Z,101525.81
2022-12-06T00:26:44.020Z,101526.50
2022-12-06T00:29:15.695Z,101518.56
2022-12-06T00:31:43.688Z,101525.16
2022-12-06T00:34:11.720Z,101525.63
2022-12-06T00:36:41.692Z,101525.38
2022-12-06T00:39:11.464Z,101524.25
2022-12-06T00:41:39.819Z,101526.13
2022-12-06T00:44:07.926Z,101519.63
2022-12-06T00:46:38.236Z,101514.94
2022-12-06T00:49:07.791Z,101521.56
2022-12-06T00:51:36.892Z,101522.13
2022-12-06T00:54:05.437Z,101528.44
2022-12-06T00:56:35.732Z,101517.16
2022-12-06T00:59:04.190Z,101513.97
2022-12-06T01:01:33.665Z,101509.16
2022-12-06T01:04:05.641Z,101512.81
2022-12-06T01:06:36.253Z,101506.06
2022-12-06T01:09:07.098Z,101509.63
2022-12-06T01:11:35.577Z,101511.00
2022-12-06T01:14:03.412Z,101508.06
2022-12-06T01:16:32.264Z,101508.44
2022-12-06T01:19:03.359Z,101503.38
2022-12-06T01:21:31.850Z,101499.44
2022-12-06T01:23:59.927Z,101502.78
2022-12-06T01:26:29.551Z,101509.84
2022-12-06T01:28:58.967Z,101504.28
2022-12-06T01:31:32.137Z,101512.06
2022-12-06T01:34:03.101Z,101512.38
2022-12-06T01:36:31.199Z,101507.66
2022-12-06T01:39:00.992Z,101505.09
2022-12-06T01:41:29.177Z,101509.88
2022-12-06T01:43:57.607Z,101508.16
2022-12-06T01:46:32.762Z,101517.34
2022-12-06T01:49:10.838Z,101514.38
2022-12-06T01:51:39.996Z,101514.06
2022-12-06T01:54:12.253Z,101501.41
2022-12-06T01:56:41.193Z,101506.13
2022-12-06T01:59:10.556Z,101506.56
2022-12-06T02:01:40.354Z,101504.81
2022-12-06T02:04:10.300Z,101512.50
2022-12-06T02:06:40.035Z,101515.06
2022-12-06T02:09:10.072Z,101513.13
2022-12-06T02:11:38.239Z,101507.00
2022-12-06T02:14:10.729Z,101506.81
2022-12-06T02:16:53.152Z,101512.13
2022-12-06T02:19:48.212Z,101520.47
2022-12-06T02:22:22.451Z,101506.22
2022-12-06T02:25:11.652Z,101506.81
2022-12-06T02:28:00.257Z,101505.19
2022-12-06T02:30:39.975Z,101504.97
2022-12-06T02:33:12.371Z,101504.75
2022-12-06T02:35:43.337Z,101497.50
2022-12-06T02:38:16.241Z,101509.53
2022-12-06T02:40:51.400Z,101500.78
2022-12-06T02:43:23.155Z,101506.66
2022-12-06T02:45:56.068Z,101521.28
2022-12-06T02:48:25.659Z,101513.97
2022-12-06T02:50:57.457Z,101503.41
2022-12-06T02:53:28.699Z,101510.22
2022-12-06T02:55:57.848Z,101512.97
2022-12-06T02:58:25.636Z,101508.59
2022-12-06T03:00:57.824Z,101510.81
2022-12-06T03:03:53.112Z,101507.66
2022-12-06T03:06:46.544Z,101512.31
2022-12-06T03:09:33.724Z,101500.63
2022-12-06T03:12:07.751Z,101504.66
2022-12-06T03:14:42.884Z,101491.44
2022-12-06T03:17:17.861Z,101501.63
2022-12-06T03:19:52.538Z,101503.63
2022-12-06T03:22:24.347Z,101493.63
2022-12-06T03:24:53.274Z,101503.28
2022-12-06T03:27:24.431Z,101502.72
2022-12-06T03:29:55.389Z,101504.84
2022-12-06T03:32:29.156Z,101499.63
2022-12-06T03:35:01.005Z,101498.66
2022-12-06T03:37:31.873Z,101490.84
2022-12-06T03:40:05.349Z,101485.41
2022-12-06T03:42:33.722Z,101495.75
2022-12-06T03:45:02.425Z,101477.88
2022-12-06T03:47:37.603Z,101486.91
2022-12-06T03:50:10.392Z,101489.06
2022-12-06T03:52:40.078Z,101488.16
2022-12-06T03:55:08.996Z,101491.72
2022-12-06T03:57:36.941Z,101490.91
2022-12-06T04:00:07.153Z,101484.00
2022-12-06T04:02:36.448Z,101488.28
2022-12-06T04:05:04.988Z,101480.75
2022-12-06T04:07:32.712Z,101484.78
2022-12-06T04:10:03.799Z,101487.31
2022-12-06T04:12:50.967Z,101487.28
2022-12-06T04:15:19.741Z,101477.56
2022-12-06T04:18:06.387Z,101483.91
2022-12-06T04:20:54.650Z,101482.44
2022-12-06T04:23:21.840Z,101476.97
2022-12-06T04:25:49.544Z,101480.28
2022-12-06T04:28:34.941Z,101481.31
2022-12-06T04:31:22.537Z,101485.28
2022-12-06T04:34:10.041Z,101496.03
2022-12-06T04:36:55.844Z,101494.94
2022-12-06T04:39:23.849Z,101489.41
2022-12-06T04:42:09.396Z,101492.81
2022-12-06T04:44:37.259Z,101497.16
2022-12-06T04:47:05.926Z,101494.81
2022-12-06T04:49:35.649Z,101497.34
2022-12-06T04:52:03.604Z,101485.44
2022-12-06T04:54:31.501Z,101494.34
2022-12-06T04:57:00.254Z,101490.81
2022-12-06T04:59:28.800Z,101493.38
2022-12-06T05:01:57.679Z,101488.28
2022-12-06T05:04:25.449Z,101491.53
2022-12-06T05:06:54.682Z,101494.22
2022-12-06T05:09:22.579Z,101489.53
2022-12-06T05:11:50.308Z,101494.13
2022-12-06T05:14:18.069Z,101493.41
2022-12-06T05:16:45.826Z,101488.19
2022-12-06T05:19:14.807Z,101483.69
2022-12-06T05:21:42.872Z,101484.41
2022-12-06T05:24:12.154Z,101482.16
2022-12-06T05:26:39.909Z,101487.03
2022-12-06T05:29:07.639Z,101476.09
2022-12-06T05:31:35.494Z,101473.34
2022-12-06T05:34:03.296Z,101465.41
2022-12-06T05:36:31.035Z,101465.88
2022-12-06T05:38:59.094Z,101471.81
2022-12-06T05:41:28.240Z,101471.09
2022-12-06T05:43:56.061Z,101481.13
2022-12-06T05:46:23.855Z,101482.91
2022-12-06T05:48:51.564Z,101488.78
2022-12-06T05:51:19.355Z,101491.97
2022-12-06T05:53:47.112Z,101491.78
2022-12-06T05:56:14.868Z,101492.28
2022-12-06T05:58:44.014Z,101494.75
2022-12-06T06:01:11.821Z,101504.47
2022-12-06T06:03:44.015Z,101502.38
2022-12-06T06:06:14.909Z,101515.22
2022-12-06T06:08:42.876Z,101514.50
2022-12-06T06:11:10.568Z,101522.44
2022-12-06T06:13:38.445Z,101514.50
2022-12-06T06:16:08.196Z,101510.31
2022-12-06T06:18:36.048Z,101505.94
2022-12-06T06:21:03.925Z,101517.03
2022-12-06T06:23:32.137Z,101498.13
2022-12-06T06:26:00.010Z,101504.84
2022-12-06T06:28:27.826Z,101502.53
2022-12-06T06:30:55.573Z,101505.94
2022-12-06T06:33:24.650Z,101510.56
2022-12-06T06:35:52.429Z,101515.59
2022-12-06T06:38:20.168Z,101516.84
2022-12-06T06:40:47.927Z,101516.63
2022-12-06T06:43:21.512Z,101517.88
2022-12-06T06:45:53.283Z,101516.84
2022-12-06T06:48:21.903Z,101516.78
2022-12-06T06:50:56.719Z,101528.19
2022-12-06T06:53:26.368Z,101534.59
2022-12-06T06:55:54.935Z,101533.44
2022-12-06T06:58:22.698Z,101528.91
2022-12-06T07:00:55.048Z,101537.00
2022-12-06T07:03:23.549Z,101535.06
2022-12-06T07:05:57.204Z,101538.63
2022-12-06T07:08:25.739Z,101538.44
2022-12-06T07:10:54.260Z,101540.19
2022-12-06T07:13:24.223Z,101529.75
2022-12-06T07:15:52.911Z,101536.50
2022-12-06T07:18:21.279Z,101545.19
2022-12-06T07:20:49.927Z,101545.28
2022-12-06T07:23:18.978Z,101538.56
2022-12-06T07:25:46.788Z,101539.78
2022-12-06T07:28:14.578Z,101540.69
2022-12-06T07:30:42.384Z,101544.16
2022-12-06T07:33:10.073Z,101543.38
2022-12-06T07:36:10.335Z,101541.91
2022-12-06T07:38:26.928Z,101550.75
2022-12-06T07:41:04.386Z,101552.78
2022-12-06T07:43:52.335Z,101561.00
2022-12-06T07:46:20.225Z,101555.03
2022-12-06T07:48:48.013Z,101558.38
2022-12-06T07:51:15.699Z,101564.59
2022-12-06T07:53:44.795Z,101565.63
2022-12-06T07:56:12.829Z,101562.41
2022-12-06T07:58:40.518Z,101564.88
2022-12-06T08:01:08.341Z,101561.94
2022-12-06T08:03:36.199Z,101556.16
2022-12-06T08:06:04.233Z,101563.22
2022-12-06T08:08:32.870Z,101562.97
2022-12-06T08:11:02.672Z,101566.16
2022-12-06T08:13:30.568Z,101578.66
2022-12-06T08:15:58.376Z,101574.03
2022-12-06T08:18:26.575Z,101576.47
2022-12-06T08:20:54.333Z,101568.16
2022-12-06T08:23:22.097Z,101563.06
2022-12-06T08:25:57.848Z,101566.34
2022-12-06T08:28:27.217Z,101567.72
2022-12-06T08:30:58.326Z,101564.09
2022-12-06T08:33:30.514Z,101571.97
2022-12-06T08:35:58.266Z,101566.31
2022-12-06T08:38:26.178Z,101570.66
2022-12-06T08:40:53.861Z,101565.63
2022-12-06T08:43:21.627Z,101555.13
2022-12-06T08:45:53.344Z,101560.31
2022-12-06T08:48:21.369Z,101560.19
2022-12-06T08:50:49.170Z,101559.44
2022-12-06T08:53:16.955Z,101572.63
2022-12-06T08:56:00.358Z,101570.91
2022-12-06T08:58:30.431Z,101564.13
2022-12-06T09:00:59.734Z,101576.00
2022-12-06T09:03:27.733Z,101578.41
2022-12-06T09:05:55.534Z,101584.66
2022-12-06T09:08:23.364Z,101590.75
2022-12-06T09:10:51.189Z,101596.19
2022-12-06T09:13:19.028Z,101579.16
2022-12-06T09:15:46.771Z,101590.72
2022-12-06T09:18:16.024Z,101591.56
2022-12-06T09:20:43.982Z,101594.47
2022-12-06T09:23:11.763Z,101588.97
2022-12-06T09:25:41.700Z,101607.19
2022-12-06T09:28:09.764Z,101604.88
2022-12-06T09:30:37.496Z,101602.69
2022-12-06T09:33:05.270Z,101597.94
2022-12-06T09:35:35.174Z,101591.22
2022-12-06T09:38:03.925Z,101592.38
2022-12-06T09:40:38.583Z,101596.44
2022-12-06T09:43:20.040Z,101582.44
2022-12-06T09:46:03.329Z,101584.81
2022-12-06T09:48:56.020Z,101579.69
2022-12-06T09:51:37.575Z,101572.13
2022-12-06T09:54:20.109Z,101572.75
2022-12-06T09:56:52.885Z,101573.63
2022-12-06T09:59:31.773Z,101591.78
2022-12-06T10:02:19.072Z,101589.31
2022-12-06T10:05:11.424Z,101591.91
2022-12-06T10:07:48.762Z,101597.94
2022-12-06T10:10:26.106Z,101601.28
2022-12-06T10:13:04.479Z,101604.81
2022-12-06T10:15:47.723Z,101617.84
2022-12-06T10:18:32.246Z,101610.56
2022-12-06T10:21:10.743Z,101604.44
2022-12-06T10:24:01.799Z,101607.25
2022-12-06T10:26:36.324Z,101610.63
2022-12-06T10:29:16.403Z,101608.66
2022-12-06T10:31:56.122Z,101616.28
2022-12-06T10:34:32.288Z,101610.25
2022-12-06T10:37:08.307Z,101608.59
2022-12-06T10:39:51.874Z,101597.28
2022-12-06T10:42:31.779Z,101593.75
2022-12-06T10:45:25.111Z,101589.50
2022-12-06T10:47:55.189Z,101593.44
2022-12-06T10:50:27.579Z,101593.50
2022-12-06T10:53:02.254Z,101591.91
2022-12-06T10:55:37.386Z,101590.72
2022-12-06T10:58:14.235Z,101586.56
2022-12-06T11:00:51.736Z,101578.81
2022-12-06T11:03:25.240Z,101573.38
2022-12-06T11:05:57.349Z,101566.66
2022-12-06T11:08:29.801Z,101572.72
2022-12-06T11:11:01.185Z,101570.47
2022-12-06T11:13:38.288Z,101561.63
2022-12-06T11:16:15.015Z,101573.66
2022-12-06T11:18:43.616Z,101564.38
2022-12-06T11:21:23.099Z,101563.69
2022-12-06T11:23:58.074Z,101557.34
2022-12-06T11:26:35.177Z,101564.63
2022-12-06T11:29:06.314Z,101554.09
2022-12-06T11:31:38.981Z,101553.63
2022-12-06T11:34:13.708Z,101552.72
2022-12-06T11:36:41.708Z,101551.47
2022-12-06T11:39:11.972Z,101549.25
2022-12-06T11:41:42.592Z,101551.53
2022-12-06T11:44:18.419Z,101543.25
2022-12-06T11:46:46.581Z,101542.00
2022-12-06T11:49:18.457Z,101538.19
2022-12-06T11:51:46.212Z,101539.13
2022-12-06T11:54:22.276Z,101534.94
2022-12-06T11:56:51.959Z,101542.03
2022-12-06T11:59:25.968Z,101529.91
2022-12-06T12:01:55.904Z,101532.19
2022-12-06T12:04:45.819Z,101523.91
2022-12-06T12:07:17.854Z,101525.44
2022-12-06T12:09:50.823Z,101524.81
2022-12-06T12:12:22.550Z,101513.81
2022-12-06T12:14:57.343Z,101519.72
2022-12-06T12:17:30.099Z,101515.47
2022-12-06T12:20:02.000Z,101509.16
2022-12-06T12:22:36.096Z,101506.13
2022-12-06T12:25:18.858Z,101504.31
2022-12-06T12:27:50.352Z,101507.59
2022-12-06T12:30:36.572Z,101513.94
2022-12-06T12:33:16.627Z,101510.69
2022-12-06T12:35:46.283Z,101514.78
2022-12-06T12:38:18.187Z,101513.47
2022-12-06T12:40:48.661Z,101512.03
2022-12-06T12:43:22.153Z,101515.25
2022-12-06T12:46:20.295Z,101504.34
2022-12-06T12:48:50.613Z,101503.25
2022-12-06T12:51:34.781Z,101498.16
2022-12-06T12:54:04.884Z,101501.44
2022-12-06T12:56:34.934Z,101502.25
2022-12-06T12:59:14.359Z,101503.78
2022-12-06T13:01:46.224Z,101504.09
2022-12-06T13:04:21.331Z,101501.22
2022-12-06T13:06:52.317Z,101505.34
2022-12-06T13:09:27.759Z,101514.66
2022-12-06T13:11:59.975Z,101507.44
2022-12-06T13:14:30.685Z,101509.59
2022-12-06T13:17:02.206Z,101495.34
2022-12-06T13:19:35.260Z,101504.78
2022-12-06T13:22:05.851Z,101500.41
2022-12-06T13:24:34.915Z,101500.13
2022-12-06T13:27:06.374Z,101500.84
2022-12-06T13:29:39.965Z,101502.00
2022-12-06T13:32:15.451Z,101499.44
2022-12-06T13:34:49.051Z,101496.47
2022-12-06T13:37:37.184Z,101498.34
2022-12-06T13:40:06.613Z,101500.41
2022-12-06T13:42:46.594Z,101498.91
2022-12-06T13:45:45.462Z,101495.72
2022-12-06T13:48:39.679Z,101498.91
2022-12-06T13:51:11.895Z,101497.94
2022-12-06T13:54:12.906Z,101490.31
2022-12-06T13:56:42.287Z,101483.59
2022-12-06T13:59:42.366Z,101480.66
2022-12-06T14:02:52.997Z,101475.63
2022-12-06T14:06:12.185Z,101482.72
2022-12-06T14:08:45.077Z,101482.56
2022-12-06T14:11:25.612Z,101472.28
2022-12-06T14:14:08.845Z,101470.69
2022-12-06T14:16:40.436Z,101481.56
2022-12-06T14:19:15.757Z,101480.00
2022-12-06T14:21:53.161Z,101479.75
2022-12-06T14:24:28.879Z,101477.75
2022-12-06T14:27:05.003Z,101475.06
2022-12-06T14:29:33.115Z,101478.88
2022-12-06T14:32:01.135Z,101478.38
2022-12-06T14:34:31.453Z,101482.00
2022-12-06T14:37:03.318Z,101478.50
2022-12-06T14:39:32.878Z,101484.38
2022-12-06T14:42:20.026Z,101484.88
2022-12-06T14:44:50.223Z,101476.03
2022-12-06T14:47:20.394Z,101461.81
2022-12-06T14:50:10.352Z,101467.72
2022-12-06T14:52:57.741Z,101471.09
2022-12-06T14:55:26.145Z,101465.13
2022-12-06T14:57:58.542Z,101465.47
2022-12-06T15:00:30.535Z,101468.41
2022-12-06T15:03:24.168Z,101459.63
2022-12-06T15:06:10.137Z,101467.16
2022-12-06T15:08:40.260Z,101467.88
2022-12-06T15:11:43.307Z,101473.72
2022-12-06T15:14:19.045Z,101485.50
2022-12-06T15:16:59.415Z,101484.06
2022-12-06T15:19:27.669Z,101486.53
2022-12-06T15:21:56.004Z,101481.00
2022-12-06T15:24:26.626Z,101478.66
2022-12-06T15:26:55.091Z,101469.59
2022-12-06T15:29:23.282Z,101476.25
2022-12-06T15:31:55.705Z,101476.06
2022-12-06T15:34:27.579Z,101475.72
2022-12-06T15:37:22.393Z,101472.78
2022-12-06T15:39:45.491Z,101474.41
2022-12-06T15:42:19.743Z,101471.81
2022-12-06T15:45:01.036Z,101476.00
2022-12-06T15:47:29.335Z,101476.09
2022-12-06T15:49:58.487Z,101472.91
2022-12-06T15:52:27.431Z,101478.72
2022-12-06T15:54:57.646Z,101483.22
2022-12-06T15:57:25.404Z,101482.94
2022-12-06T15:59:53.247Z,101488.47
2022-12-06T16:02:21.103Z,101482.16
2022-12-06T16:04:50.926Z,101489.25
2022-12-06T16:07:19.787Z,101491.81
2022-12-06T16:09:48.479Z,101491.22
2022-12-06T16:12:18.086Z,101497.09
2022-12-06T16:14:45.900Z,101498.66
2022-12-06T16:17:13.751Z,101500.53
2022-12-06T16:19:58.793Z,101502.53
2022-12-06T16:22:40.495Z,101507.47
2022-12-06T16:25:08.946Z,101521.16
2022-12-06T16:27:38.113Z,101520.03
2022-12-06T16:30:07.304Z,101527.81
2022-12-06T16:32:35.098Z,101524.44
2022-12-06T16:35:03.143Z,101526.50
2022-12-06T16:37:31.102Z,101530.03
2022-12-06T16:39:58.896Z,101526.84
2022-12-06T16:42:26.608Z,101529.81
2022-12-06T16:44:55.727Z,101540.00
2022-12-06T16:49:50.228Z,101538.88
2022-12-06T16:52:18.531Z,101533.81
2022-12-06T16:54:46.455Z,101542.50
2022-12-06T16:57:15.335Z,101544.44
2022-12-06T16:59:43.392Z,101547.94
2022-12-06T17:02:25.655Z,101539.28
2022-12-06T17:04:53.578Z,101539.44
2022-12-06T17:07:21.375Z,101540.53
2022-12-06T17:09:49.160Z,101543.53
2022-12-06T17:12:17.085Z,101543.31
2022-12-06T17:14:45.019Z,101547.00
2022-12-06T17:17:14.500Z,101548.06
2022-12-06T17:19:43.790Z,101549.22
2022-12-06T17:22:12.880Z,101549.88
2022-12-06T17:24:40.820Z,101545.44
2022-12-06T17:27:09.469Z,101543.84
2022-12-06T17:29:37.727Z,101541.50
2022-12-06T17:32:06.039Z,101546.72
2022-12-06T17:34:34.100Z,101538.97
2022-12-06T17:37:03.238Z,101538.63
2022-12-06T17:39:31.069Z,101545.00
2022-12-06T17:42:16.189Z,101547.16
2022-12-06T17:44:44.105Z,101540.59
2022-12-06T17:47:12.296Z,101543.66
2022-12-06T17:49:40.061Z,101537.84
2022-12-06T17:52:09.247Z,101540.16
2022-12-06T17:54:37.016Z,101539.16
2022-12-06T17:57:04.939Z,101541.38
2022-12-06T17:59:34.544Z,101540.25
2022-12-06T18:02:18.639Z,101540.28
2022-12-06T18:04:47.734Z,101550.97
2022-12-06T18:07:18.209Z,101553.69
2022-12-06T18:09:46.012Z,101559.03
2022-12-06T18:12:15.616Z,101564.72
2022-12-06T18:14:43.429Z,101567.22
2022-12-06T18:17:11.155Z,101569.69
2022-12-06T18:19:40.357Z,101570.44
2022-12-06T18:22:08.351Z,101570.59
2022-12-06T18:24:37.699Z,101578.41
2022-12-06T18:27:05.887Z,101575.78
2022-12-06T18:29:34.253Z,101579.84
2022-12-06T18:32:02.275Z,101577.72
2022-12-06T18:34:30.433Z,101588.78
2022-12-06T18:36:58.206Z,101597.19
2022-12-06T18:39:26.067Z,101583.53
2022-12-06T18:41:55.983Z,101585.34
2022-12-06T18:44:24.707Z,101586.34
2022-12-06T18:46:52.607Z,101583.81
2022-12-06T18:49:20.456Z,101592.53
2022-12-06T18:51:48.212Z,101592.19
2022-12-06T18:54:15.993Z,101592.41
2022-12-06T18:56:43.894Z,101603.56
2022-12-06T18:59:13.340Z,101598.59
2022-12-06T19:01:42.289Z,101597.84
2022-12-06T19:04:14.672Z,101595.75
2022-12-06T19:06:44.313Z,101594.94
2022-12-06T19:09:14.220Z,101595.31
2022-12-06T19:11:44.443Z,101604.91
2022-12-06T19:14:14.312Z,101606.94
2022-12-06T19:16:43.919Z,101611.59
2022-12-06T19:19:16.585Z,101617.22
2022-12-06T19:21:45.577Z,101608.78
2022-12-06T19:24:15.891Z,101610.13
2022-12-06T19:26:44.129Z,101620.91
2022-12-06T19:29:13.643Z,101626.19
2022-12-06T19:31:41.857Z,101624.72
2022-12-06T19:34:15.352Z,101626.59
2022-12-06T19:36:43.227Z,101620.78
2022-12-06T19:39:12.424Z,101623.53
2022-12-06T19:41:54.490Z,101628.50
2022-12-06T19:44:23.656Z,101623.09
2022-12-06T19:46:52.463Z,101631.81
2022-12-06T19:49:22.872Z,101630.53
2022-12-06T19:51:51.309Z,101630.53
2022-12-06T19:54:22.197Z,101631.31
2022-12-06T19:56:50.573Z,101635.06
2022-12-06T19:59:18.584Z,101636.88
2022-12-06T20:01:50.001Z,101635.72
2022-12-06T20:04:20.292Z,101628.44
2022-12-06T20:06:48.331Z,101628.00
2022-12-06T20:09:17.052Z,101626.09
2022-12-06T20:12:04.487Z,101629.00
2022-12-06T20:14:37.916Z,101628.44
2022-12-06T20:17:09.875Z,101630.91
2022-12-06T20:19:38.148Z,101622.50
2022-12-06T20:22:06.212Z,101626.06
2022-12-06T20:24:34.272Z,101620.72
2022-12-06T20:27:02.656Z,101628.81
2022-12-06T20:29:32.516Z,101622.78
2022-12-06T20:32:01.437Z,101612.50
2022-12-06T20:34:34.031Z,101610.53
2022-12-06T20:37:04.178Z,101611.63
2022-12-06T20:39:35.095Z,101617.00
2022-12-06T20:42:05.287Z,101617.97
2022-12-06T20:44:33.270Z,101608.34
2022-12-06T20:47:01.284Z,101613.50
2022-12-06T20:49:30.518Z,101612.94
2022-12-06T20:51:59.601Z,101611.31
2022-12-06T20:54:27.350Z,101617.91
2022-12-06T20:56:55.230Z,101620.25
2022-12-06T20:59:23.148Z,101620.63
2022-12-06T21:01:51.123Z,101622.47
2022-12-06T21:04:19.020Z,101622.47
2022-12-06T21:06:48.232Z,101628.69
2022-12-06T21:09:16.086Z,101631.53
2022-12-06T21:11:43.905Z,101627.47
2022-12-06T21:14:13.646Z,101620.47
2022-12-06T21:16:42.586Z,101628.41
2022-12-06T21:19:13.916Z,101632.81
2022-12-06T21:21:44.733Z,101623.28
2022-12-06T21:24:16.036Z,101632.91
2022-12-06T21:26:43.964Z,101620.78
2022-12-06T21:29:16.228Z,101630.56
2022-12-06T21:31:44.127Z,101638.19
2022-12-06T21:34:12.492Z,101636.91
2022-12-06T21:36:40.510Z,101644.34
2022-12-06T21:39:09.079Z,101632.69
2022-12-06T21:41:38.869Z,101641.09
2022-12-06T21:44:06.859Z,101633.50
2022-12-06T21:46:34.777Z,101645.44
2022-12-06T21:49:02.610Z,101642.59
2022-12-06T21:51:32.429Z,101644.56
2022-12-06T21:54:01.483Z,101648.38
2022-12-06T21:56:32.818Z,101656.25
2022-12-06T21:59:02.492Z,101655.00
2022-12-06T22:01:31.635Z,101653.66
2022-12-06T22:04:02.175Z,101653.78
2022-12-06T22:06:31.420Z,101650.16
2022-12-06T22:09:01.428Z,101650.06
2022-12-06T22:11:30.119Z,101651.31
2022-12-06T22:13:58.990Z,101645.78
2022-12-06T22:16:29.060Z,101654.72
2022-12-06T22:18:57.038Z,101650.53
2022-12-06T22:21:26.963Z,101642.81
2022-12-06T22:23:55.820Z,101649.34
2022-12-06T22:26:24.320Z,101653.03
2022-12-06T22:28:52.357Z,101649.22
2022-12-06T22:31:22.413Z,101648.38
2022-12-06T22:33:53.104Z,101645.41
2022-12-06T22:36:22.539Z,101648.78
2022-12-06T22:38:51.645Z,101655.06
2022-12-06T22:41:20.156Z,101652.66
2022-12-06T22:43:51.982Z,101657.81
2022-12-06T22:46:20.392Z,101651.75
2022-12-06T22:48:48.909Z,101644.28
2022-12-06T22:51:19.936Z,101647.88
2022-12-06T22:53:49.840Z,101647.78
2022-12-06T22:56:17.561Z,101657.66
2022-12-06T22:58:45.337Z,101652.44
2022-12-06T23:01:16.647Z,101658.94
2022-12-06T23:03:45.421Z,101665.84
2022-12-06T23:06:13.933Z,101662.50
2022-12-06T23:08:43.633Z,101664.22
2022-12-06T23:11:13.887Z,101662.66
2022-12-06T23:13:41.892Z,101662.63
2022-12-06T23:16:12.645Z,101660.28
2022-12-06T23:18:40.763Z,101657.56
2022-12-06T23:21:11.435Z,101655.84
2022-12-06T23:23:41.173Z,101658.38
2022-12-06T23:26:12.185Z,101651.41
2022-12-06T23:28:40.302Z,101649.72
2022-12-06T23:31:10.849Z,101653.19
2022-12-06T23:33:39.187Z,101663.81
2022-12-06T23:36:09.328Z,101659.66
2022-12-06T23:38:37.571Z,101657.81
2022-12-06T23:41:06.852Z,101662.41
2022-12-06T23:43:37.006Z,101651.78
2022-12-06T23:46:07.704Z,101658.84
2022-12-06T23:48:36.692Z,101656.09
2022-12-06T23:51:07.169Z,101659.41
2022-12-06T23:53:35.699Z,101651.72
2022-12-06T23:56:07.043Z,101645.28
2022-12-06T23:58:36.827Z,101652.31
